sensor_id;sensor_type;location;lat;lon;timestamp;P1;durP1;ratioP1;P2;durP2;ratioP2
43154;SDS011;34212;51.018;13.586;2023-11-21T00:04:10;2.83;;;2.08;;
43154;SDS011;34212;51.018;13.586;2023-11-21T00:09:13;4.20;;;2.70;;
43154;SDS011;34212;51.018;13.586;2023-11-21T00:14:16;3.88;;;2.30;;
43154;SDS011;34212;51.018;13.586;2023-11-21T00:19:19;2.67;;;2.28;;
43154;SDS011;34212;51.018;13.586;2023-11-21T00:24:21;3.85;;;2.42;;
43154;SDS011;34212;51.018;13.586;2023-11-21T00:29:22;3.08;;;2.28;;
43154;SDS011;34212;51.018;13.586;2023-11-21T00:34:25;4.22;;;2.30;;
43154;SDS011;34212;51.018;13.586;2023-11-21T00:39:26;3.53;;;2.22;;
43154;SDS011;34212;51.018;13.586;2023-11-21T00:44:28;3.40;;;2.25;;
43154;SDS011;34212;51.018;13.586;2023-11-21T00:49:30;3.45;;;2.70;;
43154;SDS011;34212;51.018;13.586;2023-11-21T00:54:31;2.83;;;2.20;;
43154;SDS011;34212;51.018;13.586;2023-11-21T00:59:35;3.55;;;1.90;;
43154;SDS011;34212;51.018;13.586;2023-11-21T01:04:37;7.05;;;2.20;;
43154;SDS011;34212;51.018;13.586;2023-11-21T01:09:39;2.87;;;2.00;;
43154;SDS011;34212;51.018;13.586;2023-11-21T01:14:40;5.40;;;2.50;;
43154;SDS011;34212;51.018;13.586;2023-11-21T01:19:42;3.38;;;2.70;;
43154;SDS011;34212;51.018;13.586;2023-11-21T01:24:43;3.25;;;2.30;;
43154;SDS011;34212;51.018;13.586;2023-11-21T01:29:46;4.10;;;2.47;;
43154;SDS011;34212;51.018;13.586;2023-11-21T01:34:47;4.22;;;2.53;;
43154;SDS011;34212;51.018;13.586;2023-11-21T01:39:51;3.88;;;2.22;;
43154;SDS011;34212;51.018;13.586;2023-11-21T01:44:53;3.63;;;2.10;;
43154;SDS011;34212;51.018;13.586;2023-11-21T01:49:56;4.55;;;2.15;;
43154;SDS011;34212;51.018;13.586;2023-11-21T01:54:58;4.72;;;2.30;;
43154;SDS011;34212;51.018;13.586;2023-11-21T02:00:01;7.95;;;2.50;;
43154;SDS011;34212;51.018;13.586;2023-11-21T02:05:16;7.60;;;1.80;;
43154;SDS011;34212;51.018;13.586;2023-11-21T02:10:19;5.70;;;1.67;;
43154;SDS011;34212;51.018;13.586;2023-11-21T02:15:25;4.40;;;1.85;;
43154;SDS011;34212;51.018;13.586;2023-11-21T02:20:30;4.43;;;1.80;;
43154;SDS011;34212;51.018;13.586;2023-11-21T02:30:35;4.68;;;2.13;;
43154;SDS011;34212;51.018;13.586;2023-11-21T02:40:39;4.50;;;2.00;;
43154;SDS011;34212;51.018;13.586;2023-11-21T02:45:41;5.30;;;2.30;;
43154;SDS011;34212;51.018;13.586;2023-11-21T02:50:43;6.25;;;2.20;;
43154;SDS011;34212;51.018;13.586;2023-11-21T02:55:44;5.32;;;1.90;;
43154;SDS011;34212;51.018;13.586;2023-11-21T03:00:46;4.30;;;1.93;;
43154;SDS011;34212;51.018;13.586;2023-11-21T03:05:48;3.35;;;1.92;;
43154;SDS011;34212;51.018;13.586;2023-11-21T03:10:49;4.78;;;2.15;;
43154;SDS011;34212;51.018;13.586;2023-11-21T03:15:51;5.93;;;2.30;;
43154;SDS011;34212;51.018;13.586;2023-11-21T03:20:53;5.53;;;2.20;;
43154;SDS011;34212;51.018;13.586;2023-11-21T03:25:54;3.53;;;2.15;;
43154;SDS011;34212;51.018;13.586;2023-11-21T03:30:56;5.03;;;2.30;;
43154;SDS011;34212;51.018;13.586;2023-11-21T03:35:58;4.50;;;2.33;;
43154;SDS011;34212;51.018;13.586;2023-11-21T03:40:59;5.20;;;2.55;;
43154;SDS011;34212;51.018;13.586;2023-11-21T03:46:02;4.88;;;2.65;;
43154;SDS011;34212;51.018;13.586;2023-11-21T03:51:04;7.00;;;2.80;;
43154;SDS011;34212;51.018;13.586;2023-11-21T03:56:08;4.97;;;2.50;;
43154;SDS011;34212;51.018;13.586;2023-11-21T04:01:10;3.20;;;2.50;;
43154;SDS011;34212;51.018;13.586;2023-11-21T04:06:12;6.47;;;2.78;;
43154;SDS011;34212;51.018;13.586;2023-11-21T04:11:13;3.60;;;2.40;;
43154;SDS011;34212;51.018;13.586;2023-11-21T04:16:17;6.10;;;2.72;;
43154;SDS011;34212;51.018;13.586;2023-11-21T04:21:29;10.63;;;3.10;;
43154;SDS011;34212;51.018;13.586;2023-11-21T04:26:31;3.90;;;2.53;;
43154;SDS011;34212;51.018;13.586;2023-11-21T04:31:33;6.40;;;3.33;;
43154;SDS011;34212;51.018;13.586;2023-11-21T04:36:35;6.30;;;2.93;;
43154;SDS011;34212;51.018;13.586;2023-11-21T04:41:36;4.15;;;2.70;;
43154;SDS011;34212;51.018;13.586;2023-11-21T04:46:53;4.95;;;3.35;;
43154;SDS011;34212;51.018;13.586;2023-11-21T04:51:55;7.93;;;3.70;;
43154;SDS011;34212;51.018;13.586;2023-11-21T04:56:57;6.97;;;3.60;;
43154;SDS011;34212;51.018;13.586;2023-11-21T05:01:58;6.50;;;3.83;;
43154;SDS011;34212;51.018;13.586;2023-11-21T05:07:01;6.75;;;3.35;;
43154;SDS011;34212;51.018;13.586;2023-11-21T05:12:03;8.15;;;4.07;;
43154;SDS011;34212;51.018;13.586;2023-11-21T05:17:04;5.25;;;3.38;;
43154;SDS011;34212;51.018;13.586;2023-11-21T05:22:07;8.33;;;3.40;;
43154;SDS011;34212;51.018;13.586;2023-11-21T05:32:11;6.57;;;3.38;;
43154;SDS011;34212;51.018;13.586;2023-11-21T05:37:13;6.05;;;3.60;;
43154;SDS011;34212;51.018;13.586;2023-11-21T05:42:14;6.32;;;3.45;;
43154;SDS011;34212;51.018;13.586;2023-11-21T05:47:16;12.55;;;3.78;;
43154;SDS011;34212;51.018;13.586;2023-11-21T05:52:19;6.53;;;3.40;;
43154;SDS011;34212;51.018;13.586;2023-11-21T06:02:23;8.02;;;4.00;;
43154;SDS011;34212;51.018;13.586;2023-11-21T06:07:25;7.30;;;4.13;;
43154;SDS011;34212;51.018;13.586;2023-11-21T06:12:27;8.30;;;4.25;;
43154;SDS011;34212;51.018;13.586;2023-11-21T06:17:28;9.63;;;4.75;;
43154;SDS011;34212;51.018;13.586;2023-11-21T06:22:30;8.98;;;5.30;;
43154;SDS011;34212;51.018;13.586;2023-11-21T06:27:32;7.68;;;4.30;;
43154;SDS011;34212;51.018;13.586;2023-11-21T06:32:36;7.45;;;4.35;;
43154;SDS011;34212;51.018;13.586;2023-11-21T06:37:37;9.65;;;4.65;;
43154;SDS011;34212;51.018;13.586;2023-11-21T06:42:39;9.80;;;3.90;;
43154;SDS011;34212;51.018;13.586;2023-11-21T06:47:41;9.52;;;4.15;;
43154;SDS011;34212;51.018;13.586;2023-11-21T06:52:42;7.97;;;4.30;;
43154;SDS011;34212;51.018;13.586;2023-11-21T06:57:45;9.57;;;4.47;;
43154;SDS011;34212;51.018;13.586;2023-11-21T07:02:48;8.82;;;4.10;;
43154;SDS011;34212;51.018;13.586;2023-11-21T07:07:49;7.97;;;4.07;;
43154;SDS011;34212;51.018;13.586;2023-11-21T07:12:51;9.43;;;4.40;;
43154;SDS011;34212;51.018;13.586;2023-11-21T07:17:54;10.75;;;4.35;;
43154;SDS011;34212;51.018;13.586;2023-11-21T07:22:56;9.70;;;4.32;;
43154;SDS011;34212;51.018;13.586;2023-11-21T07:35:01;16.63;;;8.18;;
43154;SDS011;34212;51.018;13.586;2023-11-21T07:47:59;12.55;;;5.18;;
43154;SDS011;34212;51.018;13.586;2023-11-21T08:01:49;13.05;;;5.65;;
43154;SDS011;34212;51.018;13.586;2023-11-21T08:08:04;12.73;;;6.15;;
43154;SDS011;34212;51.018;13.586;2023-11-21T15:08:11;9.90;;;5.88;;
43154;SDS011;34212;51.018;13.586;2023-11-21T15:13:29;9.90;;;6.32;;
43154;SDS011;34212;51.018;13.586;2023-11-21T15:18:31;11.98;;;6.55;;
43154;SDS011;34212;51.018;13.586;2023-11-21T15:23:33;9.18;;;6.22;;
43154;SDS011;34212;51.018;13.586;2023-11-21T15:28:36;6.85;;;4.90;;
43154;SDS011;34212;51.018;13.586;2023-11-21T18:13:21;2.50;;;1.80;;
43154;SDS011;34212;51.018;13.586;2023-11-21T18:19:49;2.38;;;1.70;;
43154;SDS011;34212;51.018;13.586;2023-11-21T18:25:58;2.30;;;1.90;;
43154;SDS011;34212;51.018;13.586;2023-11-21T22:56:10;9.68;;;6.78;;
43154;SDS011;34212;51.018;13.586;2023-11-21T23:01:12;23.55;;;7.28;;
43154;SDS011;34212;51.018;13.586;2023-11-21T23:06:15;10.93;;;7.80;;
43154;SDS011;34212;51.018;13.586;2023-11-21T23:11:18;11.40;;;8.23;;
43154;SDS011;34212;51.018;13.586;2023-11-21T23:16:19;8.88;;;7.20;;
43154;SDS011;34212;51.018;13.586;2023-11-21T23:21:21;8.18;;;6.43;;
43154;SDS011;34212;51.018;13.586;2023-11-21T23:26:22;49.13;;;8.40;;
43154;SDS011;34212;51.018;13.586;2023-11-21T23:31:24;176.38;;;11.90;;
43154;SDS011;34212;51.018;13.586;2023-11-21T23:36:27;244.93;;;14.57;;
43154;SDS011;34212;51.018;13.586;2023-11-21T23:41:29;105.05;;;12.55;;
43154;SDS011;34212;51.018;13.586;2023-11-21T23:46:31;20.50;;;9.98;;
43154;SDS011;34212;51.018;13.586;2023-11-21T23:51:36;18.48;;;9.55;;
43154;SDS011;34212;51.018;13.586;2023-11-21T23:56:37;11.30;;;8.18;;
